Logo AVAMET
Benvolgut visitant, si us plau, ingressa Recuperar contrasenya

Sant Lluís

Dades diàries. Acumulats / Últims 30 dies disponibles

Data Temperatura (°C) Humitat rel. (%) Pressió rel. (hPa) Vent (km/h) Precipitació
Mínima Mitjana Màxima Amplitud
tèrmica
Mínima Mitjana Màxima Mínima Mitjana Màxima Predom. Mitjana Ràfega
màxima
Total
(mm)
Índex-n
Mínima Mitjana Màxima Mínima Mitjana Màxima n
0 a 1
P0 max
mm 5'
Dades mensuals acumulades fins l'últim dia disponible
05/2019 9,1 13,5 17,1 17,3 18,4 21,4 24,3 15,2 35 75 95 999 1.014 1.022   12,2 80,4 5,4
Dades anuals acumulades fins l'últim dia disponible
2019 4,7 10,4 17,1 13,7 9,6 17,5 24,3 19,6 32 78 96 992 1.018 1.035   13,4 81,4 160,6
Últims 30 dies disponibles
26-05-2019 17,1     19,0     22,2 5,1 57 71 82 1.012 1.014 1.015 NO 23,4 66,6 0,0
25-05-2019 16,6     17,6     21,3 4,7 73 81 85 1.013 1.014 1.016 NE 13,0 40,7 0,0
24-05-2019 14,6     18,6     24,1 9,5 45 80 94 1.014 1.015 1.017 SSE 4,6 31,5 0,3
23-05-2019 16,8     20,0     24,3 7,5 62 80 92 1.017 1.018 1.019 SO 6,9 20,9 0,0
22-05-2019 13,5     18,9     23,4 9,9 52 78 93 1.017 1.018 1.019 SE 4,3 22,5 0,0
21-05-2019 11,3     17,6     22,7 11,4 48 75 93 1.014 1.016 1.018 S 3,8 19,3 0,0
20-05-2019 11,0     17,0     22,5 11,5 56 74 90 1.010 1.012 1.015 O 7,3 29,6 0,0
19-05-2019 11,3     15,5     20,2 8,9 56 75 90 1.008 1.009 1.012 O 11,8 48,1 0,0
18-05-2019 13,2     17,5     20,3 7,1 60 72 85 1.007 1.009 1.010 SSO 7,5 27,8 0,0
17-05-2019 15,1     17,9     22,1 7,0 70 78 86 999 1.001 1.006 OSO 23,7 80,4 0,0
16-05-2019 9,1     17,6     19,4 10,3 61 68 86 1.009 1.012 1.015 SE 10,1 29,6 0,0
15-05-2019 13,5     16,6     21,7 8,2 45 79 90 1.012 1.013 1.016 SSO 8,2 35,4 0,0
14-05-2019 12,8     18,2     23,1 10,3 35 64 84 1.016 1.017 1.019 SSO 12,2 42,6 0,0
13-05-2019 13,1     16,7     19,0 5,9 42 55 73 1.018 1.019 1.020 SSO 25,1 66,6 0,0
12-05-2019 16,0     18,4     22,1 6,1 42 57 71 1.020 1.021 1.022 O 26,4 75,9 0,0
11-05-2019 16,2     18,7     23,7 7,5 59 80 95 1.015 1.017 1.022 E 12,5 48,3 0,3
10-05-2019 15,7     19,7     24,2 8,5 71 84 94 1.012 1.013 1.015 OSO 6,6 27,8 0,0
09-05-2019 15,7     18,7     21,2 5,5 70 80 93 1.008 1.012 1.014 S 8,5 35,4 0,0
08-05-2019 15,8     18,0     21,8 6,0 77 86 92 1.008 1.012 1.017 SO 11,9 35,4 0,0
07-05-2019 14,3     16,5     19,2 4,9 66 78 86 1.017 1.019 1.021 S 12,0 29,6 0,0
06-05-2019 11,1     14,8     18,4 7,3 46 59 79 1.017 1.019 1.021 SSO 12,2 42,6 0,5
05-05-2019 11,2     14,3     18,5 7,3 42 68 84 1.010 1.013 1.018 SSO 22,0 66,6 0,5
04-05-2019 10,9     14,6     20,3 9,4 49 79 94 1.009 1.010 1.012 OSO 13,9 53,7 1,3
03-05-2019 12,0     17,3     19,9 7,9 67 77 94 1.009 1.011 1.015 NE 15,1 35,4 2,5 0,35 1,00
02-05-2019 12,0     14,6     19,8 7,8 79 87 92 1.014 1.015 1.017 S 5,0 25,9 0,0
01-05-2019 12,3     16,2     21,3 9,0 59 79 92 1.015 1.016 1.017 OSO 8,7 25,9 0,0
30-04-2019 10,7     15,0     18,9 8,2 60 78 91 1.017 1.018 1.019 S 7,5 32,2 0,0
29-04-2019 10,2     13,9     18,8 8,6 56 76 87 1.018 1.020 1.022 S 9,3 42,6 0,0
28-04-2019 10,8     14,6     18,2 7,4 66 78 93 1.021 1.023 1.025 ESE 9,1 35,4 0,3
27-04-2019 9,9     15,6     20,5 10,6 61 79 92 1.024 1.025 1.026 ESE 5,7 19,3 0,0
Últims 13 mesos disponibles
04/2019 5,8 11,6 15,8 15,0 16,3 18,7 21,4 15,6 71 80 94 996 1.013 1.025 E 13,0 59,6 63,6
03/2019 7,2 10,0 13,6 13,7 12,8 17,6 21,2 14,0 63 78 89 1.013 1.022 1.029 ESE 12,7 70,8 16,0
02/2019 5,7 8,9 13,2 12,1 11,8 15,9 19,2 13,5 58 79 90 996 1.023 1.033 E 12,4 69,2 12,8
01/2019 4,7 8,1 12,3 10,9 9,6 14,1 17,8 13,1 63 76 85 999 1.017 1.028 NO 16,4 81,4 62,5
12/2018 8,1 10,5 14,5 13,7 13,9 17,4 20,4 12,3 77 84 92 1.008 1.024 1.030 NNW 10,3 66,0 16,4
11/2018 9,4 13,7 18,2 16,2 15,4 19,2 21,6 12,2 73 83 92 999 1.014 1.023 SO 13,8 68,5 126,6
10/2018 9,4 16,1 21,1 19,7 15,2 23,4 29,3 19,9 65 80 89 994 1.012 1.023 SO 13,9 88,8 131,6
09/2018 14,8 22,2 26,9 25,8 24,9 29,9 35,4 20,6 65 79 90 1.012 1.019 1.027 8,9 72,4 37,2
08/2018 20,5 23,5 26,9 27,4 27,9 31,5 35,4 14,9 61 75 81 1.013 1.016 1.021 8,2 72,4 5,3
07/2018 19,6 22,4 24,9 26,5 28,6 30,7 33,9 14,3 8,6 69,2 9,7
06/2018 15,8 18,7 22,4 22,7 23,3 26,6 30,2 14,4 9,8 54,7 23,9
05/2018 9,9 14,5 18,7 17,8 15,0 21,3 24,4 14,5 10,7 66,0 54,7
04/2018 8,2 12,9 15,7 16,0 16,2 19,7 25,9 17,7 12,7 74,0 23,5
Tots els anys disponibles
2018 3,2 14,7 26,9 18,1 7,6 21,7 35,4 32,2 61 81 92 994 1.017 1.030 NNE 11,8 90,1 720,7
2017 2,9 14,7 26,8 18,5 7,4 22,5 36,4 33,5 11,2 93,3 501,5
Temperatura (°C)
Humitat relativa (%)
Velocitat del vent i ràfega màxima (km/h)
Direcció del vent (°)
Pressió (hPa)
Precipitació (mm)
Nota sobre les dades: s'avisa a l'usuari de la provisionalitat i no oficialitat d'aquestes dades
Logo AVAMET blanc
Web allotjada a Sollutia
Llicència de Creative CommonsLa web d'AVAMET i els seus continguts estan subjectes a una llicència de
Reconeixement - No Comercial - Compartir igual
Properes estacions: Altea - Club Nàutic d'Altea (Soci), Ontinyent - El Pilar (Soci), Ares del Maestrat (Ajuntament Soci), Catadau - L'Altet (Inforatge)     - - - - -      Últimes estacions: Asp - Poliesportiu (Soci), Jacarilla - centro (MeteOrihuela), Elx - Maitino/Vallverda/Velarde/Matola/Ferriol (Soci TiempoElche.com), Orihuela - Playa Flamenca (MeteOrihuela), - - -